sensor_id;sensor_type;location;lat;lon;timestamp;noise_LAeq;noise_LA_min;noise_LA_max;noise_LA01;noise_LA95
69608;Laerm;57251;52.248;4.812;2023-07-13T00:00:03;39.24;33.09;53.78;;
69608;Laerm;57251;52.248;4.812;2023-07-13T00:00:18;34.26;30.91;42.38;;
69608;Laerm;57251;52.248;4.812;2023-07-13T00:00:29;39.52;32.11;55.17;;
69608;Laerm;57251;52.248;4.812;2023-07-13T00:00:40;38.40;34.97;45.71;;
69608;Laerm;57251;52.248;4.812;2023-07-13T00:00:52;37.33;32.97;46.44;;
69608;Laerm;57251;52.248;4.812;2023-07-13T00:01:02;39.37;31.99;54.32;;
69608;Laerm;57251;52.248;4.812;2023-07-13T00:01:13;36.66;31.07;49.05;;
69608;Laerm;57251;52.248;4.812;2023-07-13T00:01:23;35.37;31.22;44.55;;
69608;Laerm;57251;52.248;4.812;2023-07-13T00:01:34;39.24;31.14;50.10;;
69608;Laerm;57251;52.248;4.812;2023-07-13T00:01:44;32.54;30.59;36.05;;
69608;Laerm;57251;52.248;4.812;2023-07-13T00:01:56;37.94;30.43;51.78;;
69608;Laerm;57251;52.248;4.812;2023-07-13T00:02:06;33.67;30.86;44.34;;
69608;Laerm;57251;52.248;4.812;2023-07-13T00:02:17;32.75;30.64;39.76;;
69608;Laerm;57251;52.248;4.812;2023-07-13T00:02:27;41.96;30.91;57.11;;
69608;Laerm;57251;52.248;4.812;2023-07-13T00:02:37;37.87;30.10;52.59;;
69608;Laerm;57251;52.248;4.812;2023-07-13T00:02:48;32.43;30.62;41.12;;
69608;Laerm;57251;52.248;4.812;2023-07-13T00:02:58;32.85;30.19;44.94;;
69608;Laerm;57251;52.248;4.812;2023-07-13T00:03:09;32.29;29.90;41.28;;
69608;Laerm;57251;52.248;4.812;2023-07-13T00:03:19;40.52;30.53;54.70;;
69608;Laerm;57251;52.248;4.812;2023-07-13T00:03:29;38.57;30.46;52.13;;
69608;Laerm;57251;52.248;4.812;2023-07-13T00:03:45;38.75;30.26;54.11;;
69608;Laerm;57251;52.248;4.812;2023-07-13T00:03:58;44.82;30.51;58.97;;
69608;Laerm;57251;52.248;4.812;2023-07-13T00:04:09;42.90;32.27;57.27;;
69608;Laerm;57251;52.248;4.812;2023-07-13T00:04:20;34.80;31.97;40.74;;
69608;Laerm;57251;52.248;4.812;2023-07-13T00:04:31;36.27;33.73;40.51;;
69608;Laerm;57251;52.248;4.812;2023-07-13T00:04:41;32.92;31.38;36.81;;
69608;Laerm;57251;52.248;4.812;2023-07-13T00:04:51;33.02;31.20;41.85;;
69608;Laerm;57251;52.248;4.812;2023-07-13T00:05:02;38.11;31.49;47.71;;
69608;Laerm;57251;52.248;4.812;2023-07-13T00:05:12;35.34;30.42;46.22;;
69608;Laerm;57251;52.248;4.812;2023-07-13T00:05:23;38.68;31.17;52.05;;
69608;Laerm;57251;52.248;4.812;2023-07-13T00:05:33;32.43;30.47;37.64;;
69608;Laerm;57251;52.248;4.812;2023-07-13T00:05:43;35.55;30.72;47.92;;
69608;Laerm;57251;52.248;4.812;2023-07-13T00:05:57;40.18;31.37;53.15;;
69608;Laerm;57251;52.248;4.812;2023-07-13T00:06:07;34.32;30.65;45.13;;
69608;Laerm;57251;52.248;4.812;2023-07-13T00:06:18;31.98;30.66;34.68;;
69608;Laerm;57251;52.248;4.812;2023-07-13T00:06:30;31.96;30.28;33.91;;
69608;Laerm;57251;52.248;4.812;2023-07-13T00:06:45;32.00;30.39;35.37;;
69608;Laerm;57251;52.248;4.812;2023-07-13T00:06:56;32.35;30.30;35.33;;
69608;Laerm;57251;52.248;4.812;2023-07-13T00:07:06;32.01;30.18;34.83;;
69608;Laerm;57251;52.248;4.812;2023-07-13T00:07:17;32.55;30.15;40.48;;
69608;Laerm;57251;52.248;4.812;2023-07-13T00:07:29;34.37;30.50;49.84;;
69608;Laerm;57251;52.248;4.812;2023-07-13T00:07:41;33.28;30.61;43.53;;
69608;Laerm;57251;52.248;4.812;2023-07-13T00:07:51;32.83;30.75;41.74;;
69608;Laerm;57251;52.248;4.812;2023-07-13T00:08:02;31.64;30.31;32.91;;
69608;Laerm;57251;52.248;4.812;2023-07-13T00:08:12;31.80;30.60;32.90;;
69608;Laerm;57251;52.248;4.812;2023-07-13T00:08:22;31.79;30.31;32.94;;
69608;Laerm;57251;52.248;4.812;2023-07-13T00:08:33;32.22;30.92;37.11;;
69608;Laerm;57251;52.248;4.812;2023-07-13T00:08:43;32.36;30.44;38.17;;
69608;Laerm;57251;52.248;4.812;2023-07-13T00:08:54;32.21;30.49;38.93;;
69608;Laerm;57251;52.248;4.812;2023-07-13T00:09:04;33.99;30.42;45.83;;
69608;Laerm;57251;52.248;4.812;2023-07-13T00:09:14;37.38;30.57;52.21;;
69608;Laerm;57251;52.248;4.812;2023-07-13T00:09:26;32.45;30.92;34.46;;
69608;Laerm;57251;52.248;4.812;2023-07-13T00:09:37;46.56;31.40;61.82;;
69608;Laerm;57251;52.248;4.812;2023-07-13T00:09:47;42.45;31.72;54.67;;
69608;Laerm;57251;52.248;4.812;2023-07-13T00:09:58;37.87;31.48;52.56;;
69608;Laerm;57251;52.248;4.812;2023-07-13T00:10:09;42.34;32.18;54.97;;
69608;Laerm;57251;52.248;4.812;2023-07-13T00:10:20;38.66;33.32;48.81;;
69608;Laerm;57251;52.248;4.812;2023-07-13T00:10:30;34.95;31.30;43.25;;
69608;Laerm;57251;52.248;4.812;2023-07-13T00:10:40;37.57;31.39;52.84;;
69608;Laerm;57251;52.248;4.812;2023-07-13T00:10:52;35.75;31.62;50.71;;
69608;Laerm;57251;52.248;4.812;2023-07-13T00:11:04;45.13;31.60;57.34;;
69608;Laerm;57251;52.248;4.812;2023-07-13T00:11:15;34.68;31.08;44.44;;
69608;Laerm;57251;52.248;4.812;2023-07-13T00:11:26;33.00;30.78;39.68;;
69608;Laerm;57251;52.248;4.812;2023-07-13T00:11:36;34.48;30.93;46.26;;
69608;Laerm;57251;52.248;4.812;2023-07-13T00:11:50;31.83;30.63;38.82;;
69608;Laerm;57251;52.248;4.812;2023-07-13T00:12:01;32.31;30.37;38.23;;
69608;Laerm;57251;52.248;4.812;2023-07-13T00:12:26;31.89;30.58;33.24;;
69608;Laerm;57251;52.248;4.812;2023-07-13T00:12:36;32.70;30.35;43.31;;
69608;Laerm;57251;52.248;4.812;2023-07-13T00:12:47;37.98;32.18;46.40;;
69608;Laerm;57251;52.248;4.812;2023-07-13T00:12:58;35.84;32.70;40.22;;
69608;Laerm;57251;52.248;4.812;2023-07-13T00:13:08;34.57;31.36;39.68;;
69608;Laerm;57251;52.248;4.812;2023-07-13T00:13:18;33.21;30.97;37.05;;
69608;Laerm;57251;52.248;4.812;2023-07-13T00:13:29;31.93;30.56;33.47;;
69608;Laerm;57251;52.248;4.812;2023-07-13T00:13:40;31.90;30.45;34.09;;
69608;Laerm;57251;52.248;4.812;2023-07-13T00:13:51;31.83;30.51;34.20;;
69608;Laerm;57251;52.248;4.812;2023-07-13T00:14:01;32.46;30.69;35.40;;
69608;Laerm;57251;52.248;4.812;2023-07-13T00:14:13;32.56;30.73;37.56;;
69608;Laerm;57251;52.248;4.812;2023-07-13T00:14:26;31.91;30.39;34.72;;
69608;Laerm;57251;52.248;4.812;2023-07-13T00:14:37;32.09;30.42;33.60;;
69608;Laerm;57251;52.248;4.812;2023-07-13T00:14:47;32.38;30.86;36.83;;
69608;Laerm;57251;52.248;4.812;2023-07-13T00:14:57;35.17;30.51;47.93;;
69608;Laerm;57251;52.248;4.812;2023-07-13T00:15:17;33.22;30.58;36.31;;
69608;Laerm;57251;52.248;4.812;2023-07-13T00:15:32;32.45;30.69;36.31;;
69608;Laerm;57251;52.248;4.812;2023-07-13T00:15:42;33.20;30.68;42.93;;
69608;Laerm;57251;52.248;4.812;2023-07-13T00:15:53;40.84;31.15;53.32;;
69608;Laerm;57251;52.248;4.812;2023-07-13T00:16:04;32.91;30.99;39.86;;
69608;Laerm;57251;52.248;4.812;2023-07-13T00:16:14;32.48;30.72;35.56;;
69608;Laerm;57251;52.248;4.812;2023-07-13T00:16:24;32.82;30.67;35.58;;
69608;Laerm;57251;52.248;4.812;2023-07-13T00:16:35;33.76;31.56;37.19;;
69608;Laerm;57251;52.248;4.812;2023-07-13T00:16:46;32.92;31.36;34.62;;
69608;Laerm;57251;52.248;4.812;2023-07-13T00:16:56;34.97;31.14;45.01;;
69608;Laerm;57251;52.248;4.812;2023-07-13T00:17:07;33.24;31.04;38.45;;
69608;Laerm;57251;52.248;4.812;2023-07-13T00:17:17;40.50;31.51;51.71;;
69608;Laerm;57251;52.248;4.812;2023-07-13T00:17:27;37.83;31.28;49.71;;
69608;Laerm;57251;52.248;4.812;2023-07-13T00:17:38;34.60;30.95;45.43;;
69608;Laerm;57251;52.248;4.812;2023-07-13T00:17:49;38.83;34.46;43.68;;
69608;Laerm;57251;52.248;4.812;2023-07-13T00:18:00;34.62;30.12;38.35;;
69608;Laerm;57251;52.248;4.812;2023-07-13T00:18:11;31.79;30.28;35.06;;
69608;Laerm;57251;52.248;4.812;2023-07-13T00:18:21;34.37;31.22;43.05;;
69608;Laerm;57251;52.248;4.812;2023-07-13T00:18:31;32.90;31.67;34.50;;
69608;Laerm;57251;52.248;4.812;2023-07-13T00:18:42;41.63;30.73;55.27;;
69608;Laerm;57251;52.248;4.812;2023-07-13T00:18:52;43.12;32.18;53.74;;
69608;Laerm;57251;52.248;4.812;2023-07-13T00:19:02;35.43;30.89;47.65;;
69608;Laerm;57251;52.248;4.812;2023-07-13T00:19:13;39.46;30.86;52.96;;
69608;Laerm;57251;52.248;4.812;2023-07-13T00:19:23;35.08;30.51;47.32;;
69608;Laerm;57251;52.248;4.812;2023-07-13T00:19:33;32.12;30.65;34.44;;
69608;Laerm;57251;52.248;4.812;2023-07-13T00:19:46;32.06;30.35;34.91;;
69608;Laerm;57251;52.248;4.812;2023-07-13T00:19:56;32.10;30.80;34.13;;
69608;Laerm;57251;52.248;4.812;2023-07-13T00:20:08;32.37;30.84;34.66;;
69608;Laerm;57251;52.248;4.812;2023-07-13T00:20:19;32.92;31.32;34.63;;
69608;Laerm;57251;52.248;4.812;2023-07-13T00:20:31;33.00;31.10;35.50;;
69608;Laerm;57251;52.248;4.812;2023-07-13T00:20:43;32.34;30.78;37.91;;
69608;Laerm;57251;52.248;4.812;2023-07-13T00:20:53;32.50;30.94;36.31;;
69608;Laerm;57251;52.248;4.812;2023-07-13T00:21:03;32.50;30.86;37.87;;
69608;Laerm;57251;52.248;4.812;2023-07-13T00:21:17;32.99;30.60;40.94;;
69608;Laerm;57251;52.248;4.812;2023-07-13T00:21:27;32.06;30.16;38.12;;
69608;Laerm;57251;52.248;4.812;2023-07-13T00:21:40;32.44;30.65;35.33;;
69608;Laerm;57251;52.248;4.812;2023-07-13T00:21:50;32.26;30.62;37.64;;
69608;Laerm;57251;52.248;4.812;2023-07-13T00:22:01;32.13;30.23;39.26;;
69608;Laerm;57251;52.248;4.812;2023-07-13T00:22:11;31.94;30.61;36.31;;
69608;Laerm;57251;52.248;4.812;2023-07-13T00:22:21;31.94;30.78;33.73;;
69608;Laerm;57251;52.248;4.812;2023-07-13T00:22:31;33.93;30.47;45.22;;
69608;Laerm;57251;52.248;4.812;2023-07-13T00:22:42;38.26;30.85;51.61;;
69608;Laerm;57251;52.248;4.812;2023-07-13T00:22:52;31.62;30.07;33.51;;
69608;Laerm;57251;52.248;4.812;2023-07-13T00:23:07;31.74;30.17;33.52;;
69608;Laerm;57251;52.248;4.812;2023-07-13T00:23:17;31.89;30.28;33.47;;
69608;Laerm;57251;52.248;4.812;2023-07-13T00:23:27;32.44;31.05;36.85;;
69608;Laerm;57251;52.248;4.812;2023-07-13T00:23:40;33.94;30.35;42.75;;
69608;Laerm;57251;52.248;4.812;2023-07-13T00:23:51;32.48;30.36;40.26;;
69608;Laerm;57251;52.248;4.812;2023-07-13T00:24:01;35.59;30.83;48.21;;
69608;Laerm;57251;52.248;4.812;2023-07-13T00:24:14;32.38;30.77;35.11;;
69608;Laerm;57251;52.248;4.812;2023-07-13T00:24:25;32.16;30.73;33.90;;
69608;Laerm;57251;52.248;4.812;2023-07-13T00:24:37;36.93;30.16;53.38;;
69608;Laerm;57251;52.248;4.812;2023-07-13T00:24:54;34.81;30.76;46.80;;
69608;Laerm;57251;52.248;4.812;2023-07-13T00:25:08;34.24;31.88;41.37;;
69608;Laerm;57251;52.248;4.812;2023-07-13T00:25:20;35.21;31.65;47.05;;
69608;Laerm;57251;52.248;4.812;2023-07-13T00:25:30;32.57;30.74;34.38;;
69608;Laerm;57251;52.248;4.812;2023-07-13T00:25:41;32.06;30.54;35.10;;
69608;Laerm;57251;52.248;4.812;2023-07-13T00:25:52;32.45;30.54;36.82;;
69608;Laerm;57251;52.248;4.812;2023-07-13T00:26:02;33.60;30.85;42.11;;
69608;Laerm;57251;52.248;4.812;2023-07-13T00:26:13;33.22;30.61;38.54;;
69608;Laerm;57251;52.248;4.812;2023-07-13T00:26:23;32.14;30.42;40.22;;
69608;Laerm;57251;52.248;4.812;2023-07-13T00:26:34;31.50;30.09;32.95;;
69608;Laerm;57251;52.248;4.812;2023-07-13T00:26:44;31.68;30.35;33.58;;
69608;Laerm;57251;52.248;4.812;2023-07-13T00:26:55;31.66;30.25;33.53;;
69608;Laerm;57251;52.248;4.812;2023-07-13T00:27:05;31.89;30.18;37.52;;
69608;Laerm;57251;52.248;4.812;2023-07-13T00:27:16;31.62;29.97;36.31;;
69608;Laerm;57251;52.248;4.812;2023-07-13T00:27:27;33.76;30.14;45.20;;
69608;Laerm;57251;52.248;4.812;2023-07-13T00:27:39;38.96;31.18;54.72;;
69608;Laerm;57251;52.248;4.812;2023-07-13T00:27:50;39.49;32.96;51.67;;
69608;Laerm;57251;52.248;4.812;2023-07-13T00:28:00;35.76;31.83;41.02;;
69608;Laerm;57251;52.248;4.812;2023-07-13T00:28:10;34.75;31.41;43.87;;
69608;Laerm;57251;52.248;4.812;2023-07-13T00:28:21;32.97;31.34;37.56;;
69608;Laerm;57251;52.248;4.812;2023-07-13T00:28:32;32.61;31.18;34.91;;
69608;Laerm;57251;52.248;4.812;2023-07-13T00:28:42;33.65;30.86;43.29;;
69608;Laerm;57251;52.248;4.812;2023-07-13T00:28:53;32.47;31.14;34.07;;
69608;Laerm;57251;52.248;4.812;2023-07-13T00:29:03;42.14;30.93;54.99;;
69608;Laerm;57251;52.248;4.812;2023-07-13T00:29:13;39.65;30.67;50.30;;
69608;Laerm;57251;52.248;4.812;2023-07-13T00:29:25;36.98;30.96;46.68;;
69608;Laerm;57251;52.248;4.812;2023-07-13T00:29:36;32.44;30.32;40.54;;
69608;Laerm;57251;52.248;4.812;2023-07-13T00:29:46;33.26;30.80;39.83;;
69608;Laerm;57251;52.248;4.812;2023-07-13T00:29:57;33.48;31.55;37.30;;
69608;Laerm;57251;52.248;4.812;2023-07-13T00:30:07;34.11;31.65;38.97;;
69608;Laerm;57251;52.248;4.812;2023-07-13T00:30:19;32.73;30.83;39.34;;
69608;Laerm;57251;52.248;4.812;2023-07-13T00:30:29;40.39;31.42;51.03;;
69608;Laerm;57251;52.248;4.812;2023-07-13T00:30:40;53.49;33.61;67.14;;
69608;Laerm;57251;52.248;4.812;2023-07-13T00:30:52;45.47;32.24;56.03;;
69608;Laerm;57251;52.248;4.812;2023-07-13T00:31:02;44.90;34.91;56.23;;
69608;Laerm;57251;52.248;4.812;2023-07-13T00:31:13;48.68;33.93;59.79;;
69608;Laerm;57251;52.248;4.812;2023-07-13T00:31:24;52.51;33.32;64.58;;
69608;Laerm;57251;52.248;4.812;2023-07-13T00:31:34;47.64;32.51;59.64;;
69608;Laerm;57251;52.248;4.812;2023-07-13T00:31:45;46.18;31.95;60.98;;
69608;Laerm;57251;52.248;4.812;2023-07-13T00:31:56;39.34;32.03;49.98;;
69608;Laerm;57251;52.248;4.812;2023-07-13T00:32:08;37.40;32.06;50.22;;
69608;Laerm;57251;52.248;4.812;2023-07-13T00:32:19;33.70;31.63;39.74;;
69608;Laerm;57251;52.248;4.812;2023-07-13T00:32:30;35.09;31.62;45.99;;
69608;Laerm;57251;52.248;4.812;2023-07-13T00:32:40;34.21;31.86;42.68;;
69608;Laerm;57251;52.248;4.812;2023-07-13T00:32:50;34.03;30.78;42.10;;
69608;Laerm;57251;52.248;4.812;2023-07-13T00:33:01;38.36;31.63;52.58;;
69608;Laerm;57251;52.248;4.812;2023-07-13T00:33:11;32.23;30.60;37.31;;
69608;Laerm;57251;52.248;4.812;2023-07-13T00:33:21;32.45;30.19;41.63;;
69608;Laerm;57251;52.248;4.812;2023-07-13T00:33:32;31.61;30.05;33.01;;
69608;Laerm;57251;52.248;4.812;2023-07-13T00:33:43;31.69;30.40;33.97;;
69608;Laerm;57251;52.248;4.812;2023-07-13T00:33:53;32.65;30.39;44.33;;
69608;Laerm;57251;52.248;4.812;2023-07-13T00:34:04;33.02;30.36;44.69;;
69608;Laerm;57251;52.248;4.812;2023-07-13T00:34:14;32.32;30.43;40.85;;
69608;Laerm;57251;52.248;4.812;2023-07-13T00:34:24;33.84;30.03;47.75;;
69608;Laerm;57251;52.248;4.812;2023-07-13T00:34:35;31.58;30.44;33.13;;
69608;Laerm;57251;52.248;4.812;2023-07-13T00:34:45;32.19;30.25;36.89;;
69608;Laerm;57251;52.248;4.812;2023-07-13T00:34:55;32.21;29.78;43.78;;
69608;Laerm;57251;52.248;4.812;2023-07-13T00:35:07;47.62;31.45;68.57;;
69608;Laerm;57251;52.248;4.812;2023-07-13T00:35:18;40.09;30.63;51.11;;
69608;Laerm;57251;52.248;4.812;2023-07-13T00:35:30;31.60;29.91;33.44;;
69608;Laerm;57251;52.248;4.812;2023-07-13T00:35:40;31.45;30.21;32.77;;
69608;Laerm;57251;52.248;4.812;2023-07-13T00:35:54;31.21;29.94;32.48;;
69608;Laerm;57251;52.248;4.812;2023-07-13T00:36:04;31.43;30.10;32.87;;
69608;Laerm;57251;52.248;4.812;2023-07-13T00:36:15;31.75;30.22;34.16;;
69608;Laerm;57251;52.248;4.812;2023-07-13T00:36:25;31.91;30.04;40.93;;
69608;Laerm;57251;52.248;4.812;2023-07-13T00:36:36;32.03;30.17;40.24;;
69608;Laerm;57251;52.248;4.812;2023-07-13T00:36:46;31.51;30.29;33.93;;
69608;Laerm;57251;52.248;4.812;2023-07-13T00:36:56;31.34;30.23;32.60;;
69608;Laerm;57251;52.248;4.812;2023-07-13T00:37:07;32.56;30.54;40.98;;
69608;Laerm;57251;52.248;4.812;2023-07-13T00:37:17;36.62;30.67;49.00;;
69608;Laerm;57251;52.248;4.812;2023-07-13T00:37:27;37.56;30.90;50.39;;
69608;Laerm;57251;52.248;4.812;2023-07-13T00:37:38;37.55;30.92;51.97;;
69608;Laerm;57251;52.248;4.812;2023-07-13T00:37:48;32.47;30.57;40.90;;
69608;Laerm;57251;52.248;4.812;2023-07-13T00:37:58;33.97;31.37;42.76;;
69608;Laerm;57251;52.248;4.812;2023-07-13T00:38:08;32.86;31.20;41.66;;
69608;Laerm;57251;52.248;4.812;2023-07-13T00:38:19;33.02;30.97;40.96;;
69608;Laerm;57251;52.248;4.812;2023-07-13T00:38:29;40.63;31.52;51.40;;
69608;Laerm;57251;52.248;4.812;2023-07-13T00:38:39;45.08;31.42;58.07;;
69608;Laerm;57251;52.248;4.812;2023-07-13T00:38:49;36.48;30.83;46.24;;
69608;Laerm;57251;52.248;4.812;2023-07-13T00:39:00;39.19;31.13;49.66;;
69608;Laerm;57251;52.248;4.812;2023-07-13T00:39:10;35.66;30.93;43.07;;
69608;Laerm;57251;52.248;4.812;2023-07-13T00:39:20;40.11;33.35;49.66;;
69608;Laerm;57251;52.248;4.812;2023-07-13T00:39:31;41.33;32.02;54.12;;
69608;Laerm;57251;52.248;4.812;2023-07-13T00:39:41;34.73;31.30;45.09;;
69608;Laerm;57251;52.248;4.812;2023-07-13T00:39:51;34.25;31.05;42.48;;
69608;Laerm;57251;52.248;4.812;2023-07-13T00:40:02;33.00;31.09;36.66;;
69608;Laerm;57251;52.248;4.812;2023-07-13T00:40:14;34.55;31.51;46.00;;
69608;Laerm;57251;52.248;4.812;2023-07-13T00:40:24;34.16;31.24;43.59;;
69608;Laerm;57251;52.248;4.812;2023-07-13T00:40:34;41.76;31.16;53.37;;
69608;Laerm;57251;52.248;4.812;2023-07-13T00:40:45;36.62;30.97;50.62;;
69608;Laerm;57251;52.248;4.812;2023-07-13T00:40:55;34.17;30.65;42.22;;
69608;Laerm;57251;52.248;4.812;2023-07-13T00:41:05;37.84;32.72;42.20;;
69608;Laerm;57251;52.248;4.812;2023-07-13T00:41:15;46.79;39.26;53.36;;
69608;Laerm;57251;52.248;4.812;2023-07-13T00:41:26;44.15;37.89;51.07;;
69608;Laerm;57251;52.248;4.812;2023-07-13T00:41:36;48.31;42.81;53.13;;
69608;Laerm;57251;52.248;4.812;2023-07-13T00:41:47;51.20;42.38;56.66;;
69608;Laerm;57251;52.248;4.812;2023-07-13T00:41:57;40.92;35.80;44.92;;
69608;Laerm;57251;52.248;4.812;2023-07-13T00:42:07;38.99;34.16;44.23;;
69608;Laerm;57251;52.248;4.812;2023-07-13T00:42:17;35.99;32.20;41.77;;
69608;Laerm;57251;52.248;4.812;2023-07-13T00:42:28;37.50;31.75;49.03;;
69608;Laerm;57251;52.248;4.812;2023-07-13T00:42:38;37.69;30.91;52.23;;
69608;Laerm;57251;52.248;4.812;2023-07-13T00:42:51;38.30;31.55;49.82;;
69608;Laerm;57251;52.248;4.812;2023-07-13T00:43:01;41.35;31.31;53.48;;
69608;Laerm;57251;52.248;4.812;2023-07-13T00:43:19;38.17;31.05;48.97;;
69608;Laerm;57251;52.248;4.812;2023-07-13T00:43:30;35.05;30.84;46.47;;
69608;Laerm;57251;52.248;4.812;2023-07-13T00:43:40;34.54;32.02;37.36;;
69608;Laerm;57251;52.248;4.812;2023-07-13T00:43:51;34.18;31.71;41.43;;
69608;Laerm;57251;52.248;4.812;2023-07-13T00:44:01;36.16;31.29;48.26;;
69608;Laerm;57251;52.248;4.812;2023-07-13T00:44:15;35.99;30.51;47.68;;
69608;Laerm;57251;52.248;4.812;2023-07-13T00:44:26;38.93;31.04;52.34;;
69608;Laerm;57251;52.248;4.812;2023-07-13T00:44:36;37.01;31.69;49.18;;
69608;Laerm;57251;52.248;4.812;2023-07-13T00:46:13;35.14;31.48;43.92;;
69608;Laerm;57251;52.248;4.812;2023-07-13T00:46:28;47.41;31.15;63.48;;
69608;Laerm;57251;52.248;4.812;2023-07-13T00:46:38;46.94;30.92;60.69;;
69608;Laerm;57251;52.248;4.812;2023-07-13T00:46:49;32.26;30.75;34.72;;
69608;Laerm;57251;52.248;4.812;2023-07-13T00:46:59;32.81;30.88;37.45;;
69608;Laerm;57251;52.248;4.812;2023-07-13T00:47:09;34.90;30.94;46.07;;
69608;Laerm;57251;52.248;4.812;2023-07-13T00:47:20;31.71;30.30;33.69;;
69608;Laerm;57251;52.248;4.812;2023-07-13T00:47:30;31.95;30.29;38.00;;
69608;Laerm;57251;52.248;4.812;2023-07-13T00:47:40;31.95;30.67;33.80;;
69608;Laerm;57251;52.248;4.812;2023-07-13T00:47:50;32.42;30.84;34.73;;
69608;Laerm;57251;52.248;4.812;2023-07-13T00:48:01;37.45;31.13;49.71;;
69608;Laerm;57251;52.248;4.812;2023-07-13T00:48:12;35.13;31.63;46.71;;
69608;Laerm;57251;52.248;4.812;2023-07-13T00:48:26;35.64;32.20;47.64;;
69608;Laerm;57251;52.248;4.812;2023-07-13T00:48:37;41.24;31.49;54.88;;
69608;Laerm;57251;52.248;4.812;2023-07-13T00:48:48;40.49;31.44;50.90;;
69608;Laerm;57251;52.248;4.812;2023-07-13T00:49:00;34.61;30.99;41.18;;
69608;Laerm;57251;52.248;4.812;2023-07-13T00:49:12;32.47;30.72;35.55;;
69608;Laerm;57251;52.248;4.812;2023-07-13T00:49:23;32.16;30.41;35.99;;
69608;Laerm;57251;52.248;4.812;2023-07-13T00:49:35;41.65;30.80;59.29;;
69608;Laerm;57251;52.248;4.812;2023-07-13T00:49:46;32.68;30.72;38.96;;
69608;Laerm;57251;52.248;4.812;2023-07-13T00:49:56;32.83;31.11;35.19;;
69608;Laerm;57251;52.248;4.812;2023-07-13T00:50:07;32.24;30.82;33.87;;
69608;Laerm;57251;52.248;4.812;2023-07-13T00:50:19;32.59;30.59;35.63;;
69608;Laerm;57251;52.248;4.812;2023-07-13T00:50:29;35.75;31.60;43.15;;
69608;Laerm;57251;52.248;4.812;2023-07-13T00:50:40;35.06;31.01;46.45;;
69608;Laerm;57251;52.248;4.812;2023-07-13T00:50:52;42.01;31.09;58.61;;
69608;Laerm;57251;52.248;4.812;2023-07-13T00:51:03;32.97;30.02;48.19;;
69608;Laerm;57251;52.248;4.812;2023-07-13T00:51:14;31.80;30.38;33.89;;
69608;Laerm;57251;52.248;4.812;2023-07-13T00:51:35;34.14;30.49;46.94;;
69608;Laerm;57251;52.248;4.812;2023-07-13T00:51:50;38.17;31.13;51.40;;
69608;Laerm;57251;52.248;4.812;2023-07-13T00:52:03;32.23;30.56;36.80;;
69608;Laerm;57251;52.248;4.812;2023-07-13T00:52:15;32.30;31.01;35.07;;
69608;Laerm;57251;52.248;4.812;2023-07-13T00:52:25;33.78;31.21;41.69;;
69608;Laerm;57251;52.248;4.812;2023-07-13T00:52:36;37.71;31.41;49.14;;
69608;Laerm;57251;52.248;4.812;2023-07-13T00:52:49;34.62;30.96;45.07;;
69608;Laerm;57251;52.248;4.812;2023-07-13T00:53:01;32.79;30.57;42.20;;
69608;Laerm;57251;52.248;4.812;2023-07-13T00:53:12;32.26;30.74;34.09;;
69608;Laerm;57251;52.248;4.812;2023-07-13T00:53:23;33.07;31.02;41.61;;
69608;Laerm;57251;52.248;4.812;2023-07-13T00:53:35;32.50;30.45;36.06;;
69608;Laerm;57251;52.248;4.812;2023-07-13T00:53:45;36.09;30.67;46.01;;
69608;Laerm;57251;52.248;4.812;2023-07-13T00:53:56;32.68;30.99;35.88;;
69608;Laerm;57251;52.248;4.812;2023-07-13T00:54:09;33.12;30.62;42.07;;
69608;Laerm;57251;52.248;4.812;2023-07-13T00:54:23;36.29;30.51;49.45;;
69608;Laerm;57251;52.248;4.812;2023-07-13T00:54:38;32.33;30.53;36.63;;
69608;Laerm;57251;52.248;4.812;2023-07-13T00:54:49;32.16;30.53;36.11;;
69608;Laerm;57251;52.248;4.812;2023-07-13T00:54:59;35.57;30.70;44.12;;
69608;Laerm;57251;52.248;4.812;2023-07-13T00:55:10;32.20;30.32;39.18;;
69608;Laerm;57251;52.248;4.812;2023-07-13T00:55:21;39.80;30.65;51.31;;
69608;Laerm;57251;52.248;4.812;2023-07-13T00:55:32;37.60;30.26;50.92;;
69608;Laerm;57251;52.248;4.812;2023-07-13T00:55:42;31.99;30.40;38.50;;
69608;Laerm;57251;52.248;4.812;2023-07-13T00:55:53;31.76;30.63;33.15;;
69608;Laerm;57251;52.248;4.812;2023-07-13T00:56:04;31.82;30.22;33.28;;
69608;Laerm;57251;52.248;4.812;2023-07-13T00:56:15;32.17;30.61;34.37;;
69608;Laerm;57251;52.248;4.812;2023-07-13T00:56:25;40.46;31.03;55.09;;
69608;Laerm;57251;52.248;4.812;2023-07-13T00:56:36;32.21;30.45;37.76;;
69608;Laerm;57251;52.248;4.812;2023-07-13T00:56:48;31.94;30.22;37.92;;
69608;Laerm;57251;52.248;4.812;2023-07-13T00:57:01;32.00;30.37;34.47;;
69608;Laerm;57251;52.248;4.812;2023-07-13T00:57:14;35.16;32.05;38.65;;
69608;Laerm;57251;52.248;4.812;2023-07-13T00:57:25;33.06;31.37;35.03;;
69608;Laerm;57251;52.248;4.812;2023-07-13T00:57:35;31.66;30.26;33.67;;
69608;Laerm;57251;52.248;4.812;2023-07-13T00:57:45;31.73;30.34;34.64;;
69608;Laerm;57251;52.248;4.812;2023-07-13T00:57:56;31.76;29.97;33.76;;
69608;Laerm;57251;52.248;4.812;2023-07-13T00:58:06;31.57;30.07;33.12;;
69608;Laerm;57251;52.248;4.812;2023-07-13T00:58:17;31.49;30.11;32.87;;
69608;Laerm;57251;52.248;4.812;2023-07-13T00:58:27;31.56;29.74;37.50;;
69608;Laerm;57251;52.248;4.812;2023-07-13T00:58:38;31.72;30.34;38.53;;
69608;Laerm;57251;52.248;4.812;2023-07-13T00:58:48;31.65;29.98;34.12;;
69608;Laerm;57251;52.248;4.812;2023-07-13T00:59:00;32.37;29.75;40.55;;
69608;Laerm;57251;52.248;4.812;2023-07-13T00:59:13;31.68;30.17;33.69;;
69608;Laerm;57251;52.248;4.812;2023-07-13T00:59:25;31.66;30.54;32.85;;
69608;Laerm;57251;52.248;4.812;2023-07-13T00:59:35;34.36;30.38;45.80;;
69608;Laerm;57251;52.248;4.812;2023-07-13T00:59:49;31.96;30.43;33.59;;
69608;Laerm;57251;52.248;4.812;2023-07-13T01:00:02;34.70;30.62;45.17;;
69608;Laerm;57251;52.248;4.812;2023-07-13T01:00:15;32.39;30.48;38.57;;
69608;Laerm;57251;52.248;4.812;2023-07-13T01:00:26;43.12;30.80;52.54;;
69608;Laerm;57251;52.248;4.812;2023-07-13T01:00:38;41.81;31.12;48.12;;
69608;Laerm;57251;52.248;4.812;2023-07-13T01:00:48;32.06;30.67;34.58;;
69608;Laerm;57251;52.248;4.812;2023-07-13T01:00:59;34.82;30.44;42.99;;
69608;Laerm;57251;52.248;4.812;2023-07-13T01:01:09;37.85;31.07;48.64;;
69608;Laerm;57251;52.248;4.812;2023-07-13T01:01:19;34.13;30.70;47.08;;
69608;Laerm;57251;52.248;4.812;2023-07-13T01:01:29;34.17;31.42;42.16;;
69608;Laerm;57251;52.248;4.812;2023-07-13T01:01:40;33.08;30.55;39.53;;
69608;Laerm;57251;52.248;4.812;2023-07-13T01:01:50;33.18;30.66;42.04;;
69608;Laerm;57251;52.248;4.812;2023-07-13T01:02:00;35.02;31.23;48.92;;
69608;Laerm;57251;52.248;4.812;2023-07-13T01:02:11;42.05;31.76;54.51;;
69608;Laerm;57251;52.248;4.812;2023-07-13T01:02:21;36.10;30.57;47.14;;
69608;Laerm;57251;52.248;4.812;2023-07-13T01:02:32;32.42;30.44;41.03;;
69608;Laerm;57251;52.248;4.812;2023-07-13T01:02:44;38.85;30.30;54.50;;
69608;Laerm;57251;52.248;4.812;2023-07-13T01:02:56;34.69;30.29;48.37;;
69608;Laerm;57251;52.248;4.812;2023-07-13T01:03:07;38.50;30.54;52.22;;
69608;Laerm;57251;52.248;4.812;2023-07-13T01:03:17;35.27;30.69;48.13;;
69608;Laerm;57251;52.248;4.812;2023-07-13T01:03:28;32.97;30.84;41.15;;